Time;durP1;ratioP1;P1;durP2;ratioP2;P2;SDS_P1;SDS_P2;PMS_P1;PMS_P2;Temp;Humidity;BMP_temperature;BMP_pressure;BME280_temperature;BME280_humidity;BME280_pressure;Samples;Min_cycle;Max_cycle;Signal;HPM_P1;HPM_P2
2022/04/03 00:00:40;;;;;;;;;;;9.10;77.00;;;7.97;72.42;94884.50;4174115;34;19934;-88
2022/04/03 00:03:09;;;;;;;;;;;9.10;77.00;;;7.98;72.16;94890.78;4129676;34;20154;-87
2022/04/03 00:05:41;;;;;;;;;;;9.10;77.00;;;7.97;72.22;94886.41;4130655;34;20336;-87
2022/04/03 00:08:13;;;;;;;;;;;9.10;77.00;;;7.96;72.27;94880.13;4129846;34;19903;-87
2022/04/03 00:10:42;;;;;;;;;;;9.00;76.90;;;7.96;72.54;94891.03;4130214;34;20110;-87
2022/04/03 00:13:10;;;;;;;;;;;9.00;76.90;;;7.96;72.71;94887.50;4153043;34;19904;-87
2022/04/03 00:15:41;;;;;;;;;;;9.00;76.90;;;7.96;72.47;94888.31;4153375;34;19910;-87
2022/04/03 00:18:10;;;;;;;;;;;9.00;76.80;;;7.95;72.18;94881.25;4129999;34;19919;-88
2022/04/03 00:20:38;;;;;;;;;;;9.00;76.90;;;7.95;72.64;94889.41;4152674;34;19903;-87
2022/04/03 00:23:07;;;;;;;;;;;9.00;76.90;;;7.95;72.68;94881.25;4152763;34;19903;-87
2022/04/03 00:25:38;;;;;;;;;;;9.10;77.00;;;7.94;72.17;94885.06;4152814;34;19967;-87
2022/04/03 00:28:07;;;;;;;;;;;9.00;76.90;;;7.94;72.66;94882.34;4130027;34;19911;-86
2022/04/03 00:30:35;;;;;;;;;;;9.00;77.80;;;7.93;72.17;94875.28;4152570;34;19915;-87
2022/04/03 00:33:04;;;;;;;;;;;9.00;76.90;;;7.93;72.24;94882.63;4152762;34;20218;-87
2022/04/03 00:35:32;;;;;;;;;;;9.00;76.90;;;7.93;72.05;94886.19;4152759;34;19904;-87
2022/04/03 00:38:01;;;;;;;;;;;9.00;77.00;;;7.93;72.23;94877.19;4152293;34;20474;-87
2022/04/03 00:40:29;;;;;;;;;;;9.00;77.00;;;7.93;72.72;94883.47;4152427;34;19971;-87
2022/04/03 00:42:59;;;;;;;;;;;9.00;77.00;;;7.92;72.52;94875.56;4130151;34;20111;-87
2022/04/03 00:45:28;;;;;;;;;;;9.00;77.00;;;7.91;72.64;94880.22;4152820;34;20173;-87
2022/04/03 00:47:57;;;;;;;;;;;9.00;77.00;;;7.91;72.61;94874.75;4152158;34;19903;-87
2022/04/03 00:50:25;;;;;;;;;;;9.00;77.00;;;7.91;72.49;94874.75;4152212;34;20239;-87
2022/04/03 00:52:54;;;;;;;;;;;9.00;77.00;;;7.91;72.50;94871.19;4130169;34;19946;-87
2022/04/03 00:55:22;;;;;;;;;;;9.00;77.00;;;7.90;72.13;94872.28;4130021;34;19904;-87
2022/04/03 00:57:51;;;;;;;;;;;9.00;77.00;;;7.90;72.42;94869.56;4129582;34;20127;-87
2022/04/03 01:00:21;;;;;;;;;;;9.00;76.80;;;7.89;72.41;94870.66;4152312;34;19903;-87
2022/04/03 01:02:51;;;;;;;;;;;9.00;76.80;;;7.89;72.22;94866.06;4152441;34;20218;-87
2022/04/03 01:05:19;;;;;;;;;;;9.00;76.80;;;7.88;72.36;94871.78;4129799;34;20060;-87
2022/04/03 01:07:48;;;;;;;;;;;9.00;76.80;;;7.89;72.32;94870.66;4152177;34;20057;-87
2022/04/03 01:10:16;;;;;;;;;;;9.00;76.80;;;7.88;72.33;94872.59;4152459;34;19978;-86
2022/04/03 01:12:46;;;;;;;;;;;9.00;76.90;;;7.87;71.90;94873.69;4129583;34;20079;-86
2022/04/03 01:15:15;;;;;;;;;;;9.00;76.80;;;7.86;72.55;94877.50;4152279;34;19903;-86
2022/04/03 01:17:44;;;;;;;;;;;8.90;76.80;;;7.86;72.44;94869.34;4129306;34;19911;-86
2022/04/03 01:20:13;;;;;;;;;;;8.90;76.90;;;7.86;72.18;94866.63;4129642;34;19903;-86
2022/04/03 01:22:41;;;;;;;;;;;9.00;76.90;;;7.86;72.50;94866.63;4129742;34;20160;-86
2022/04/03 01:25:14;;;;;;;;;;;8.90;76.90;;;7.87;72.46;94867.44;4129431;34;19945;-87
2022/04/03 01:27:42;;;;;;;;;;;8.90;77.00;;;7.85;72.69;94865.00;4129196;34;19904;-87
2022/04/03 01:30:12;;;;;;;;;;;8.90;77.00;;;7.84;72.58;94863.34;4152421;34;20222;-87
2022/04/03 01:32:41;;;;;;;;;;;8.90;77.00;;;7.85;72.63;94864.19;4129632;34;20033;-87
2022/04/03 01:35:10;;;;;;;;;;;8.90;77.00;;;7.83;72.55;94861.72;4129521;34;20103;-87
2022/04/03 01:37:38;;;;;;;;;;;8.90;76.90;;;7.85;72.43;94864.19;4128938;34;19904;-86
2022/04/03 01:40:08;;;;;;;;;;;8.90;77.00;;;7.83;72.39;94864.44;4129389;34;19911;-87
2022/04/03 01:42:39;;;;;;;;;;;8.90;77.00;;;7.83;72.44;94880.81;4129476;34;19903;-87
2022/04/03 01:45:08;;;;;;;;;;;8.90;77.00;;;7.82;72.73;94881.91;4129233;34;19911;-86
2022/04/03 01:47:37;;;;;;;;;;;8.90;77.10;;;7.83;72.63;94888.97;4128781;34;19903;-87
2022/04/03 01:50:07;;;;;;;;;;;8.90;77.20;;;7.82;72.54;94890.91;4129346;34;19910;-87
2022/04/03 01:52:35;;;;;;;;;;;8.90;77.20;;;7.83;72.55;94886.25;4129330;34;20221;-86
2022/04/03 01:55:07;;;;;;;;;;;8.90;77.20;;;7.82;72.60;94888.19;4151978;34;20131;-86
2022/04/03 01:57:35;;;;;;;;;;;8.90;77.20;;;7.83;72.48;94891.69;4128851;34;19904;-85
2022/04/03 02:00:10;;;;;;;;;;;8.90;77.20;;;7.81;72.52;94892.00;4129084;34;20346;-87
2022/04/03 02:02:39;;;;;;;;;;;8.90;77.10;;;7.82;72.75;94898.25;4128388;34;20170;-87
2022/04/03 02:05:08;;;;;;;;;;;8.90;77.20;;;7.81;72.42;94893.91;4128983;34;19903;-87
2022/04/03 02:07:37;;;;;;;;;;;8.90;77.20;;;7.81;72.89;94902.09;4128641;34;20213;-87
2022/04/03 02:10:08;;;;;;;;;;;8.90;77.10;;;7.80;72.60;94905.91;4129271;34;20317;-87
2022/04/03 02:12:37;;;;;;;;;;;8.90;77.00;;;7.80;72.13;94909.44;4129240;34;19923;-87
2022/04/03 02:15:08;;;;;;;;;;;8.90;77.00;;;7.80;72.73;94906.72;4129203;34;19903;-87
2022/04/03 02:17:37;;;;;;;;;;;8.90;77.10;;;7.79;72.27;94904.28;4124166;34;19907;-87
2022/04/03 02:20:08;;;;;;;;;;;8.90;77.00;;;7.79;72.53;94904.28;4124387;34;20135;-87
2022/04/03 02:22:37;;;;;;;;;;;8.90;76.90;;;7.80;72.23;94905.91;4124505;34;20460;-87
2022/04/03 02:25:09;;;;;;;;;;;8.90;76.90;;;7.78;72.07;94906.19;4124605;34;20370;-86
2022/04/03 02:27:38;;;;;;;;;;;8.90;76.80;;;7.78;72.06;94902.66;4101790;34;20165;-86
2022/04/03 02:30:10;;;;;;;;;;;8.90;76.80;;;7.78;72.69;94908.91;4102155;34;20227;-87
2022/04/03 02:32:38;;;;;;;;;;;8.90;76.80;;;7.77;72.27;94904.56;4126661;34;20065;-86
2022/04/03 02:35:09;;;;;;;;;;;8.90;76.90;;;7.77;72.17;94907.28;4151645;34;19910;-87
2022/04/03 02:37:38;;;;;;;;;;;8.90;76.90;;;7.76;72.42;94897.47;4128656;34;20231;-88
2022/04/03 02:40:09;;;;;;;;;;;8.90;76.80;;;7.77;72.29;94901.03;4151709;34;20483;-88
2022/04/03 02:42:37;;;;;;;;;;;8.90;77.00;;;7.77;72.48;94901.03;4129253;34;19904;-88
2022/04/03 02:45:10;;;;;;;;;;;8.90;77.00;;;7.77;72.52;94903.75;4129238;34;20074;-88
2022/04/03 02:47:38;;;;;;;;;;;8.90;77.00;;;7.76;72.09;94911.09;4128723;34;20087;-88
2022/04/03 02:50:09;;;;;;;;;;;8.80;76.70;;;7.75;72.02;94909.47;4174775;34;19904;-88
2022/04/03 02:52:37;;;;;;;;;;;8.80;76.60;;;7.75;72.43;94914.13;4152153;34;20163;-88
2022/04/03 02:55:06;;;;;;;;;;;8.80;76.60;;;7.75;72.19;94914.13;4151688;34;19903;-88
2022/04/03 02:57:35;;;;;;;;;;;8.80;76.50;;;7.74;71.71;94920.66;4151278;34;20245;-87
2022/04/03 03:00:05;;;;;;;;;;;8.80;76.60;;;7.74;72.40;94917.94;4174580;34;19910;-88
2022/04/03 03:02:36;;;;;;;;;;;8.80;76.50;;;7.73;72.17;94919.88;4128523;34;19911;-89
2022/04/03 03:05:05;;;;;;;;;;;8.80;76.50;;;7.73;72.03;94921.75;4128607;34;19903;-89
2022/04/03 03:07:49;;;;;;;;;;;8.80;76.50;;;7.72;72.45;94925.56;4128307;34;20134;-89
2022/04/03 03:10:19;;;;;;;;;;;8.80;76.50;;;7.73;72.32;94936.22;4128875;34;20214;-89
2022/04/03 03:13:08;;;;;;;;;;;8.80;76.60;;;7.72;72.29;94931.84;4128840;34;19926;-90
2022/04/03 03:16:08;;;;;;;;;;;8.80;76.50;;;7.72;72.16;94939.19;4128914;34;20145;-89
2022/04/03 03:18:38;;;;;;;;;;;8.80;76.50;;;7.71;72.43;94941.13;4128723;34;20086;-87
2022/04/03 03:21:06;;;;;;;;;;;8.80;76.50;;;7.71;71.40;94949.28;4151516;34;19904;-89
2022/04/03 03:23:35;;;;;;;;;;;8.80;76.40;;;7.70;72.06;94944.09;4128849;34;20072;-89
2022/04/03 03:26:03;;;;;;;;;;;8.80;76.40;;;7.70;72.14;94947.66;4151373;34;19904;-89
2022/04/03 03:28:33;;;;;;;;;;;8.80;76.40;;;7.70;71.83;94949.56;4128658;34;20084;-89
2022/04/03 03:31:01;;;;;;;;;;;8.80;76.50;;;7.70;72.13;94946.84;4151453;34;19904;-88
2022/04/03 03:33:29;;;;;;;;;;;8.80;76.50;;;7.68;72.21;94953.38;4128760;34;19908;-89
2022/04/03 03:35:59;;;;;;;;;;;8.80;76.50;;;7.70;71.73;94960.44;4128705;34;20134;-89
2022/04/03 03:38:28;;;;;;;;;;;8.80;76.50;;;7.68;72.10;94953.38;4128336;34;19903;-89
2022/04/03 03:40:56;;;;;;;;;;;8.80;76.50;;;7.69;72.21;94959.66;4151362;34;20126;-89
2022/04/03 03:43:25;;;;;;;;;;;8.80;76.50;;;7.68;72.13;94958.81;4128412;34;19911;-89
2022/04/03 03:45:53;;;;;;;;;;;8.80;76.50;;;7.68;72.55;94953.38;4128439;34;20254;-89
2022/04/03 03:48:50;;;;;;;;;;;8.80;76.50;;;7.68;71.89;94956.09;4127994;34;19995;-89
2022/04/03 03:51:42;;;;;;;;;;;8.80;76.60;;;7.68;71.86;94952.56;4128220;34;20125;-89
2022/04/03 03:54:30;;;;;;;;;;;8.80;76.50;;;7.68;72.44;94955.28;4128328;34;19904;-89
2022/04/03 03:56:59;;;;;;;;;;;8.80;76.50;;;7.66;71.87;94952.88;4127790;34;20311;-89
2022/04/03 03:59:28;;;;;;;;;;;8.80;76.50;;;7.67;71.94;94946.31;4150879;34;19915;-89
2022/04/03 04:01:56;;;;;;;;;;;8.80;76.50;;;7.67;72.01;94951.78;4150893;34;20092;-89
2022/04/03 04:04:24;;;;;;;;;;;8.80;76.50;;;7.67;72.06;94953.66;4128257;34;20146;-89
2022/04/03 04:06:54;;;;;;;;;;;8.80;77.30;;;7.66;72.04;94950.16;4128017;34;20198;-88
2022/04/03 04:09:23;;;;;;;;;;;8.80;76.50;;;7.66;72.38;94950.16;4128438;34;19911;-88
2022/04/03 04:11:52;;;;;;;;;;;8.80;76.60;;;7.67;72.06;94959.13;4128370;34;20468;-89
2022/04/03 04:14:21;;;;;;;;;;;8.80;76.50;;;7.65;71.79;94964.84;4128059;34;20023;-89
2022/04/03 04:16:49;;;;;;;;;;;8.80;76.50;;;7.65;71.68;94959.41;4142610;34;20242;-89
2022/04/03 04:23:38;;;;;;;;;;;8.80;76.50;;;7.66;71.99;94980.09;4150766;34;19900;-89
2022/04/03 04:26:07;;;;;;;;;;;8.80;76.40;;;7.67;72.17;94976.28;4151214;34;20141;-88
2022/04/03 04:28:35;;;;;;;;;;;8.80;76.50;;;7.66;71.80;94991.00;4129967;34;19994;-88
2022/04/03 04:31:04;;;;;;;;;;;8.80;76.50;;;7.66;72.33;94982.81;4152866;34;20116;-89
2022/04/03 04:33:32;;;;;;;;;;;8.80;76.40;;;7.67;72.20;94989.91;4130238;34;19903;-88
2022/04/03 04:36:01;;;;;;;;;;;8.80;76.40;;;7.67;71.72;94991.81;4130138;34;19903;-89
2022/04/03 04:38:29;;;;;;;;;;;8.80;76.30;;;7.68;71.87;94996.16;4152643;34;20210;-88
2022/04/03 04:40:59;;;;;;;;;;;8.80;76.20;;;7.66;71.66;94993.72;4130283;34;20341;-89
2022/04/03 04:43:28;;;;;;;;;;;8.80;76.20;;;7.67;71.96;95000.81;4130183;34;20164;-88
2022/04/03 04:45:56;;;;;;;;;;;8.80;76.20;;;7.67;71.75;95000.81;4130002;34;19983;-88
2022/04/03 04:48:25;;;;;;;;;;;8.80;76.20;;;7.65;72.09;95011.16;4152437;34;19903;-88
2022/04/03 04:50:54;;;;;;;;;;;8.80;76.20;;;7.66;72.01;95017.41;4130236;34;19987;-88
2022/04/03 04:53:23;;;;;;;;;;;8.80;76.20;;;7.65;71.74;95019.34;4130409;34;20108;-88
2022/04/03 04:55:52;;;;;;;;;;;8.80;76.20;;;7.65;71.87;95023.94;4129937;34;19911;-87
2022/04/03 04:58:21;;;;;;;;;;;8.80;76.20;;;7.65;72.19;95024.78;4129800;34;20234;-88
2022/04/03 05:00:50;;;;;;;;;;;8.80;76.20;;;7.64;72.15;95023.16;4130028;34;19904;-88
2022/04/03 05:03:18;;;;;;;;;;;8.70;76.20;;;7.64;71.88;95042.22;4152727;34;20131;-88
2022/04/03 05:05:47;;;;;;;;;;;8.70;76.30;;;7.64;72.04;95044.94;4130020;34;19977;-88
2022/04/03 05:08:16;;;;;;;;;;;8.70;76.30;;;7.64;71.64;95036.78;4152377;34;20151;-88
2022/04/03 05:10:44;;;;;;;;;;;8.70;76.20;;;7.63;71.99;95037.88;4129920;34;19933;-87
2022/04/03 05:13:12;;;;;;;;;;;8.70;76.30;;;7.63;71.79;95043.31;4129920;34;19907;-88
2022/04/03 05:15:42;;;;;;;;;;;8.70;76.40;;;7.63;71.78;95043.31;4152501;34;19904;-88
2022/04/03 05:18:11;;;;;;;;;;;8.70;76.30;;;7.63;71.71;95048.75;4129512;34;20517;-87
2022/04/03 05:20:41;;;;;;;;;;;8.70;76.20;;;7.62;71.85;95047.13;4152440;34;20055;-88
2022/04/03 05:23:09;;;;;;;;;;;8.70;76.20;;;7.63;71.96;95043.31;4129919;34;19988;-88
2022/04/03 05:25:38;;;;;;;;;;;8.70;76.20;;;7.64;71.55;95046.84;4152286;34;19965;-88
2022/04/03 05:28:08;;;;;;;;;;;8.70;76.20;;;7.63;71.78;95043.31;4151917;34;19904;-87
2022/04/03 05:30:37;;;;;;;;;;;8.70;76.10;;;7.63;71.59;95054.19;4152385;34;19911;-88
2022/04/03 05:33:07;;;;;;;;;;;8.70;76.00;;;7.64;71.63;95055.00;4129866;34;19910;-88
2022/04/03 05:35:35;;;;;;;;;;;8.70;76.00;;;7.64;71.74;95055.00;4129824;34;19956;-88
2022/04/03 05:38:04;;;;;;;;;;;8.70;76.00;;;7.64;71.78;95055.84;4129486;34;20126;-88
2022/04/03 05:40:33;;;;;;;;;;;8.70;76.00;;;7.65;71.36;95052.03;4129832;34;19904;-88
2022/04/03 05:43:01;;;;;;;;;;;8.80;75.90;;;7.67;71.18;95057.19;4129904;34;20071;-88
2022/04/03 05:45:30;;;;;;;;;;;8.80;75.60;;;7.68;70.97;95058.81;4152283;34;19910;-87
2022/04/03 05:47:58;;;;;;;;;;;8.80;75.70;;;7.69;71.48;95063.16;4151929;34;19904;-88
2022/04/03 05:50:29;;;;;;;;;;;8.80;75.60;;;7.67;71.50;95058.00;4152177;34;19990;-88
2022/04/03 05:52:57;;;;;;;;;;;8.80;75.70;;;7.68;71.32;95066.97;4152306;34;20267;-88
2022/04/03 05:55:26;;;;;;;;;;;8.80;75.60;;;7.68;71.00;95072.44;4152273;34;20206;-88
2022/04/03 05:57:54;;;;;;;;;;;8.80;75.60;;;7.68;71.03;95077.88;4151680;34;20049;-88
2022/04/03 06:00:23;;;;;;;;;;;8.80;75.60;;;7.67;71.73;95074.34;4152119;34;19904;-88
2022/04/03 06:02:56;;;;;;;;;;;8.80;75.60;;;7.68;71.06;95081.41;4129580;34;20146;-88
2022/04/03 06:05:26;;;;;;;;;;;8.80;75.60;;;7.67;71.12;95077.06;4129533;34;20174;-88
2022/04/03 06:07:56;;;;;;;;;;;8.80;75.40;;;7.65;71.21;95084.72;4151586;34;19915;-88
2022/04/03 06:10:25;;;;;;;;;;;8.80;75.30;;;7.65;71.22;95081.97;4151985;34;19974;-88
2022/04/03 06:12:59;;;;;;;;;;;8.80;75.40;;;7.65;70.97;95090.16;4129604;34;19910;-88
2022/04/03 06:15:31;;;;;;;;;;;8.80;75.30;;;7.65;71.27;95084.72;4152023;34;20342;-88
2022/04/03 06:18:00;;;;;;;;;;;8.80;75.40;;;7.65;71.00;95092.88;4151642;34;20314;-87
2022/04/03 06:20:28;;;;;;;;;;;8.80;75.50;;;7.64;70.90;95093.97;4151856;34;19910;-89
2022/04/03 06:22:59;;;;;;;;;;;8.80;75.40;;;7.64;70.97;95088.53;4129556;34;19904;-88
2022/04/03 06:25:27;;;;;;;;;;;8.80;75.40;;;7.64;71.60;95096.69;4129541;34;20413;-88
2022/04/03 06:27:56;;;;;;;;;;;8.70;75.50;;;7.64;71.27;95102.13;4151442;34;19904;-88
2022/04/03 06:30:25;;;;;;;;;;;8.80;75.40;;;7.66;71.03;95101.84;4129235;34;20166;-88
2022/04/03 06:32:53;;;;;;;;;;;8.80;75.30;;;7.67;70.87;95111.66;4129128;34;19904;-88
2022/04/03 06:35:22;;;;;;;;;;;8.80;75.10;;;7.68;70.63;95108.63;4129344;34;20063;-88
2022/04/03 06:37:50;;;;;;;;;;;8.80;75.10;;;7.68;70.94;95116.00;4128649;34;19910;-87
2022/04/03 06:40:20;;;;;;;;;;;8.80;76.00;;;7.67;70.75;95123.38;4129147;34;20115;-88
2022/04/03 06:42:48;;;;;;;;;;;8.80;75.40;;;7.70;70.76;95134.78;4129308;34;20073;-88
2022/04/03 06:45:17;;;;;;;;;;;8.80;75.10;;;7.70;70.99;95135.63;4151836;34;19904;-88
2022/04/03 06:47:45;;;;;;;;;;;8.80;74.80;;;7.72;71.04;95140.78;4128583;34;19976;-88
2022/04/03 06:50:14;;;;;;;;;;;8.80;75.30;;;7.70;70.48;95138.34;4150883;34;19912;-88
2022/04/03 06:52:42;;;;;;;;;;;8.80;74.80;;;7.72;70.67;95143.50;4151749;34;20009;-88
2022/04/03 06:55:11;;;;;;;;;;;8.80;75.10;;;7.73;70.47;95150.59;4151498;34;20307;-88
2022/04/03 06:57:41;;;;;;;;;;;8.80;74.90;;;7.74;70.32;95153.03;4128390;34;19956;-88
2022/04/03 07:00:11;;;;;;;;;;;8.80;75.80;;;7.72;70.27;95148.94;4128846;34;21503;-88
2022/04/03 07:02:41;;;;;;;;;;;8.80;74.70;;;7.75;71.44;95142.94;4128884;34;20125;-88
2022/04/03 07:05:10;;;;;;;;;;;8.80;75.30;;;7.75;71.02;95142.94;4128933;34;20040;-89
2022/04/03 07:07:39;;;;;;;;;;;8.80;75.70;;;7.77;71.39;95148.94;4128453;34;20230;-88
2022/04/03 07:10:08;;;;;;;;;;;8.90;76.00;;;7.77;70.96;95148.94;4151408;34;20090;-87
2022/04/03 07:12:37;;;;;;;;;;;8.90;75.30;;;7.79;70.77;95154.94;4128915;34;19904;-88
2022/04/03 07:15:12;;;;;;;;;;;8.90;75.10;;;7.79;70.30;95158.47;4151546;34;20207;-88
2022/04/03 07:17:40;;;;;;;;;;;8.90;74.50;;;7.80;71.52;95151.13;4101513;34;19904;-88
2022/04/03 07:20:13;;;;;;;;;;;8.90;75.70;;;7.81;71.53;95163.66;4101697;34;20032;-89
2022/04/03 07:22:42;;;;;;;;;;;8.90;75.80;;;7.80;71.51;95162.00;4124333;34;20182;-88
2022/04/03 07:25:10;;;;;;;;;;;8.90;76.00;;;7.80;71.03;95157.38;4101983;34;20121;-88
2022/04/03 07:27:39;;;;;;;;;;;8.90;75.90;;;7.80;71.17;95164.75;4127603;34;19911;-88
2022/04/03 07:30:12;;;;;;;;;;;8.90;75.50;;;7.79;70.84;95171.28;4151032;34;19903;-87
2022/04/03 07:32:41;;;;;;;;;;;8.90;75.30;;;7.78;71.09;95169.66;4151294;34;19985;-87
2022/04/03 07:35:10;;;;;;;;;;;8.90;75.40;;;7.77;71.14;95177.00;4128686;34;20139;-88
2022/04/03 07:37:38;;;;;;;;;;;8.90;75.40;;;7.76;71.46;95177.28;4128142;34;20142;-87
2022/04/03 07:40:09;;;;;;;;;;;8.90;75.60;;;7.77;71.40;95189.81;4128666;34;19982;-88
2022/04/03 07:42:39;;;;;;;;;;;8.90;75.30;;;7.74;70.14;95191.19;4128624;34;20114;-88
2022/04/03 07:45:11;;;;;;;;;;;8.90;74.40;;;7.74;70.62;95184.91;4150986;34;19950;-88
2022/04/03 07:47:47;;;;;;;;;;;8.80;74.60;;;7.72;70.54;95187.09;4128178;34;20161;-88
2022/04/03 07:50:16;;;;;;;;;;;8.80;74.80;;;7.71;70.88;95185.47;4151064;34;20234;-88
2022/04/03 07:52:44;;;;;;;;;;;8.90;75.10;;;7.70;71.01;95190.09;4151165;34;20006;-88
2022/04/03 07:55:13;;;;;;;;;;;8.80;75.20;;;7.70;70.63;95184.66;4128595;34;20174;-88
2022/04/03 07:57:42;;;;;;;;;;;8.80;74.50;;;7.68;69.84;95187.63;4128152;34;20245;-88
2022/04/03 08:00:15;;;;;;;;;;;8.80;74.10;;;7.71;69.93;95190.91;4128330;34;19908;-88
2022/04/03 08:02:43;;;;;;;;;;;8.80;74.20;;;7.69;69.93;95191.19;4130942;34;19911;-88
2022/04/03 08:05:12;;;;;;;;;;;8.80;75.00;;;7.70;70.67;95198.28;4153486;34;20086;-88
2022/04/03 08:07:43;;;;;;;;;;;8.80;75.30;;;7.70;71.34;95200.16;4130252;34;19914;-89
2022/04/03 08:10:13;;;;;;;;;;;8.80;75.10;;;7.70;70.32;95194.72;4153400;34;19911;-89
2022/04/03 08:12:43;;;;;;;;;;;8.80;74.80;;;7.71;70.72;95190.91;4154237;34;20470;-88
2022/04/03 08:15:15;;;;;;;;;;;8.80;74.80;;;7.70;70.89;95189.28;4130916;34;19904;-88
2022/04/03 08:17:44;;;;;;;;;;;8.80;74.90;;;7.70;70.71;95194.72;4130074;34;19904;-88
2022/04/03 08:20:16;;;;;;;;;;;8.80;74.70;;;7.71;70.62;95190.91;4130605;34;20386;-88
2022/04/03 08:22:45;;;;;;;;;;;8.80;75.00;;;7.72;71.05;95197.97;4130481;34;20154;-88
2022/04/03 08:25:13;;;;;;;;;;;8.80;75.10;;;7.72;70.94;95198.81;4130647;34;19904;-88
2022/04/03 08:27:44;;;;;;;;;;;8.80;75.20;;;7.74;70.95;95190.34;4130068;34;20186;-88
2022/04/03 08:30:15;;;;;;;;;;;8.80;75.20;;;7.75;71.49;95186.53;4130320;34;19903;-88
2022/04/03 08:32:43;;;;;;;;;;;8.80;75.60;;;7.77;71.04;95200.72;4130619;34;19911;-88
2022/04/03 08:35:12;;;;;;;;;;;8.90;75.60;;;7.79;71.13;95198.53;4130535;34;19903;-88
2022/04/03 08:37:40;;;;;;;;;;;8.90;75.60;;;7.84;70.90;95206.66;4130079;34;19904;-88
2022/04/03 08:40:10;;;;;;;;;;;8.90;75.40;;;7.89;70.97;95214.84;4130407;34;19911;-88
2022/04/03 08:42:40;;;;;;;;;;;9.00;75.30;;;7.94;70.83;95209.34;4130479;34;20159;-88
2022/04/03 08:45:11;;;;;;;;;;;9.00;75.40;;;7.98;70.77;95207.72;4130577;34;19904;-88
2022/04/03 08:47:44;;;;;;;;;;;9.00;75.10;;;8.03;70.41;95219.69;4152626;34;19917;-88
2022/04/03 08:50:13;;;;;;;;;;;9.10;75.10;;;8.03;70.13;95195.97;4130233;34;19986;-88
2022/04/03 08:52:45;;;;;;;;;;;9.10;74.90;;;8.06;70.31;95203.59;4153074;34;20052;-88
2022/04/03 08:55:14;;;;;;;;;;;9.10;74.90;;;8.09;70.07;95218.56;4152861;34;19904;-87
2022/04/03 08:57:42;;;;;;;;;;;9.20;74.70;;;8.11;70.26;95216.38;4152639;34;20017;-87
2022/04/03 09:00:13;;;;;;;;;;;9.20;74.70;;;8.13;70.41;95212.25;4130389;34;19931;-88
2022/04/03 09:02:45;;;;;;;;;;;9.20;74.60;;;8.14;70.27;95218.56;4130130;34;20105;-88
2022/04/03 09:05:14;;;;;;;;;;;9.20;74.40;;;8.15;70.26;95217.47;4129987;34;20242;-88
2022/04/03 09:07:43;;;;;;;;;;;9.20;74.50;;;8.13;69.84;95215.00;4175148;34;19954;-89
2022/04/03 09:10:13;;;;;;;;;;;9.20;74.40;;;8.12;70.13;95227.03;4129960;34;19967;-89
2022/04/03 09:12:45;;;;;;;;;;;9.20;74.30;;;8.10;70.28;95221.03;4129659;34;20013;-89
2022/04/03 09:15:15;;;;;;;;;;;9.20;74.30;;;8.10;70.37;95221.03;4129814;34;20279;-88
2022/04/03 09:17:46;;;;;;;;;;;9.20;74.30;;;8.07;69.85;95226.19;4152940;34;19904;-89
2022/04/03 09:20:37;;;;;;;;;;;9.20;74.40;;;8.07;70.64;95229.75;4130003;34;19950;-88
2022/04/03 09:23:08;;;;;;;;;;;9.20;74.50;;;8.07;69.95;95237.09;4229145;33;19958;-86
2022/04/03 09:25:37;;;;;;;;;;;9.20;74.50;;;8.08;70.20;95238.72;4183793;33;20221;-87
2022/04/03 09:28:08;;;;;;;;;;;9.20;74.40;;;8.09;70.05;95243.09;4183222;33;19909;-87
2022/04/03 09:30:38;;;;;;;;;;;9.20;74.40;;;8.08;70.21;95238.72;4183452;33;20244;-87
2022/04/03 09:33:09;;;;;;;;;;;9.20;74.40;;;8.08;70.22;95250.47;4183680;33;20010;-87
2022/04/03 09:35:57;;;;;;;;;;;9.20;74.30;;;8.10;69.76;95247.44;4183626;33;19903;-87
2022/04/03 09:38:27;;;;;;;;;;;9.20;74.30;;;8.09;69.84;95249.38;4178568;34;20181;-87
2022/04/03 09:40:56;;;;;;;;;;;9.20;74.20;;;8.09;70.41;95257.56;4178755;34;19918;-87
2022/04/03 09:43:25;;;;;;;;;;;9.20;74.30;;;8.09;70.26;95257.56;4156113;34;19903;-88
2022/04/03 09:45:56;;;;;;;;;;;9.20;74.30;;;8.09;70.08;95262.19;4156171;34;20206;-88
2022/04/03 09:48:28;;;;;;;;;;;9.20;74.30;;;8.09;70.27;95259.44;4180710;34;19910;-89
2022/04/03 09:51:05;;;;;;;;;;;9.20;74.40;;;8.08;70.47;95263.25;4180171;34;19903;-88
2022/04/03 09:53:45;;;;;;;;;;;9.20;74.40;;;8.06;70.09;95263.56;4156019;34;19904;-88
2022/04/03 09:56:14;;;;;;;;;;;9.20;74.40;;;8.07;70.27;95259.75;4178709;34;19903;-89
2022/04/03 09:58:58;;;;;;;;;;;9.20;74.40;;;8.06;70.36;95273.66;4166457;33;20011;-88
2022/04/03 10:01:28;;;;;;;;;;;9.20;74.40;;;8.06;70.03;95273.66;4183661;33;19909;-89
2022/04/03 10:03:59;;;;;;;;;;;9.20;74.40;;;8.07;70.70;95272.53;4206719;33;19903;-88
2022/04/03 10:06:27;;;;;;;;;;;9.20;74.40;;;8.06;69.80;95268.22;4207398;33;20109;-88
2022/04/03 10:08:56;;;;;;;;;;;9.20;74.40;;;8.05;70.41;95264.66;4206653;33;20181;-87
2022/04/03 10:11:25;;;;;;;;;;;9.20;74.50;;;8.07;70.23;95278.00;4207099;33;19910;-89
2022/04/03 10:13:53;;;;;;;;;;;9.20;74.40;;;8.08;70.12;95276.91;4183681;33;20103;-88
2022/04/03 10:16:22;;;;;;;;;;;9.20;74.60;;;8.08;70.37;95288.63;4230009;33;19903;-89
2022/04/03 10:18:51;;;;;;;;;;;9.20;74.60;;;8.07;69.89;95297.06;4206944;33;19970;-88
2022/04/03 10:21:28;;;;;;;;;;;9.20;74.50;;;8.07;70.22;95294.34;4206501;33;20225;-88
2022/04/03 10:24:00;;;;;;;;;;;9.20;74.40;;;8.06;70.22;95300.91;4206299;33;20107;-89
2022/04/03 10:26:28;;;;;;;;;;;9.20;74.40;;;8.06;70.21;95300.91;4183181;33;20146;-88
2022/04/03 10:28:57;;;;;;;;;;;9.20;74.30;;;8.04;70.07;95305.81;4206541;33;20119;-87
2022/04/03 10:31:26;;;;;;;;;;;9.20;74.40;;;8.03;69.95;95305.00;4206541;33;19902;-88
2022/04/03 10:33:54;;;;;;;;;;;9.20;74.40;;;8.00;70.29;95308.28;4206473;33;19909;-89
2022/04/03 10:36:29;;;;;;;;;;;9.20;74.50;;;8.01;70.22;95303.63;4206344;33;19957;-89
2022/04/03 10:39:00;;;;;;;;;;;9.20;74.40;;;7.98;70.67;95316.72;4178503;34;19950;-88
2022/04/03 10:41:31;;;;;;;;;;;9.10;74.60;;;7.97;70.53;95320.53;4178604;34;19903;-88
2022/04/03 10:44:14;;;;;;;;;;;9.10;74.60;;;7.99;70.66;95317.56;4178840;34;20018;-88
2022/04/03 10:47:23;;;;;;;;;;;9.10;74.60;;;7.99;70.61;95325.72;4178430;34;19903;-88
2022/04/03 10:50:00;;;;;;;;;;;9.10;74.80;;;7.97;70.39;95328.72;4155685;34;20081;-89
2022/04/03 10:52:59;;;;;;;;;;;9.10;74.60;;;7.94;70.68;95321.09;4178644;34;19903;-87
2022/04/03 10:55:36;;;;;;;;;;;9.10;74.80;;;7.92;70.30;95328.75;4178724;34;20203;-88
2022/04/03 10:58:06;;;;;;;;;;;9.00;74.60;;;7.92;70.54;95342.38;4155406;34;20137;-88
2022/04/03 11:00:40;;;;;;;;;;;9.00;74.80;;;7.91;70.59;95340.72;4178240;34;20059;-89
2022/04/03 11:03:37;;;;;;;;;;;9.00;74.80;;;7.92;70.94;95345.09;4178822;34;19987;-89
2022/04/03 11:06:35;;;;;;;;;;;9.00;74.70;;;7.92;70.52;95344.25;4155591;34;19910;-91
2022/04/03 11:09:26;;;;;;;;;;;9.00;74.90;;;7.92;70.71;95347.81;4156804;33;19903;-89
2022/04/03 11:11:59;;;;;;;;;;;9.00;74.80;;;7.93;70.33;95354.91;4183248;33;19909;-89
2022/04/03 11:14:55;;;;;;;;;;;9.00;74.70;;;7.93;70.17;95357.63;4206491;33;20038;-89
2022/04/03 11:17:51;;;;;;;;;;;9.00;74.50;;;7.93;70.81;95373.97;4183090;33;20132;-89
2022/04/03 11:20:39;;;;;;;;;;;9.00;74.60;;;7.93;70.38;95368.53;4180945;33;20027;-90
2022/04/03 11:23:14;;;;;;;;;;;9.10;74.60;;;7.92;70.54;95366.06;4183249;33;20099;-89
2022/04/03 11:25:44;;;;;;;;;;;9.00;74.50;;;7.90;70.44;95358.16;4183315;33;19909;-89
2022/04/03 11:28:14;;;;;;;;;;;9.00;74.50;;;7.90;70.21;95368.25;4182822;33;19951;-90
2022/04/03 11:30:43;;;;;;;;;;;9.00;74.60;;;7.90;70.05;95379.97;4183054;33;19902;-89
2022/04/03 11:33:18;;;;;;;;;;;9.00;74.50;;;7.90;70.88;95385.41;4183576;33;20057;-89
2022/04/03 11:35:53;;;;;;;;;;;9.00;74.60;;;7.87;70.41;95377.78;4184728;33;20121;-89
2022/04/03 11:38:22;;;;;;;;;;;9.00;74.60;;;7.86;70.32;95381.59;4185361;33;20138;-89
2022/04/03 11:41:02;;;;;;;;;;;9.00;74.70;;;7.85;70.05;95390.88;4209302;33;19911;-89
2022/04/03 11:43:30;;;;;;;;;;;9.00;74.30;;;7.83;70.24;95395.75;4185343;33;19910;-89
2022/04/03 11:46:01;;;;;;;;;;;9.00;74.60;;;7.83;70.16;95393.03;4185738;33;20157;-88
2022/04/03 11:48:30;;;;;;;;;;;8.90;74.60;;;7.82;70.37;95394.97;4207966;33;19925;-88
2022/04/03 11:51:09;;;;;;;;;;;8.90;75.00;;;7.82;70.76;95394.13;4208565;33;19902;-89
2022/04/03 11:53:39;;;;;;;;;;;8.90;74.80;;;7.80;69.95;95396.34;4208341;33;19963;-89
2022/04/03 13:48:57;;;;;;;;;;;8.50;73.50;;;7.38;69.25;95485.31;4359545;32;19908;-84